sensor_id;sensor_type;location;lat;lon;timestamp;P1;durP1;ratioP1;P2;durP2;ratioP2
78987;SDS011;74752;44.786;37.680;2024-02-26T00:00:13;10.70;;;3.53;;
78987;SDS011;74752;44.786;37.680;2024-02-26T00:01:16;9.10;;;3.35;;
78987;SDS011;74752;44.786;37.680;2024-02-26T00:02:19;8.50;;;3.22;;
78987;SDS011;74752;44.786;37.680;2024-02-26T00:03:21;10.57;;;3.10;;
78987;SDS011;74752;44.786;37.680;2024-02-26T00:04:22;15.32;;;3.67;;
78987;SDS011;74752;44.786;37.680;2024-02-26T00:05:25;14.60;;;3.67;;
78987;SDS011;74752;44.786;37.680;2024-02-26T00:06:29;13.50;;;3.10;;
78987;SDS011;74752;44.786;37.680;2024-02-26T00:07:32;15.25;;;3.78;;
78987;SDS011;74752;44.786;37.680;2024-02-26T00:08:34;19.48;;;4.03;;
78987;SDS011;74752;44.786;37.680;2024-02-26T00:09:36;11.52;;;3.88;;
78987;SDS011;74752;44.786;37.680;2024-02-26T00:10:39;10.05;;;3.35;;
78987;SDS011;74752;44.786;37.680;2024-02-26T00:11:41;12.45;;;3.90;;
78987;SDS011;74752;44.786;37.680;2024-02-26T00:12:43;17.33;;;4.55;;
78987;SDS011;74752;44.786;37.680;2024-02-26T00:13:46;14.10;;;3.97;;
78987;SDS011;74752;44.786;37.680;2024-02-26T00:14:48;18.48;;;4.22;;
78987;SDS011;74752;44.786;37.680;2024-02-26T00:15:51;12.90;;;3.63;;
78987;SDS011;74752;44.786;37.680;2024-02-26T00:16:52;13.23;;;3.80;;
78987;SDS011;74752;44.786;37.680;2024-02-26T00:17:58;17.92;;;3.83;;
78987;SDS011;74752;44.786;37.680;2024-02-26T00:19:05;16.63;;;3.45;;
78987;SDS011;74752;44.786;37.680;2024-02-26T00:20:10;23.10;;;4.28;;
78987;SDS011;74752;44.786;37.680;2024-02-26T00:21:12;26.50;;;5.10;;
78987;SDS011;74752;44.786;37.680;2024-02-26T00:22:17;18.13;;;4.95;;
78987;SDS011;74752;44.786;37.680;2024-02-26T00:23:19;33.90;;;4.43;;
78987;SDS011;74752;44.786;37.680;2024-02-26T00:24:21;33.55;;;4.65;;
78987;SDS011;74752;44.786;37.680;2024-02-26T00:25:23;44.85;;;9.63;;
78987;SDS011;74752;44.786;37.680;2024-02-26T00:26:25;17.27;;;5.07;;
78987;SDS011;74752;44.786;37.680;2024-02-26T00:27:28;17.58;;;3.90;;
78987;SDS011;74752;44.786;37.680;2024-02-26T00:28:30;28.52;;;6.45;;
78987;SDS011;74752;44.786;37.680;2024-02-26T00:29:32;51.67;;;5.55;;
78987;SDS011;74752;44.786;37.680;2024-02-26T00:30:35;26.98;;;4.88;;
78987;SDS011;74752;44.786;37.680;2024-02-26T00:31:38;21.27;;;3.88;;
78987;SDS011;74752;44.786;37.680;2024-02-26T00:32:40;14.07;;;4.00;;
78987;SDS011;74752;44.786;37.680;2024-02-26T00:33:42;14.00;;;3.88;;
78987;SDS011;74752;44.786;37.680;2024-02-26T00:34:48;13.95;;;3.83;;
78987;SDS011;74752;44.786;37.680;2024-02-26T00:36:52;15.85;;;4.15;;
78987;SDS011;74752;44.786;37.680;2024-02-26T00:37:53;16.77;;;4.47;;
78987;SDS011;74752;44.786;37.680;2024-02-26T00:38:56;19.05;;;4.85;;
78987;SDS011;74752;44.786;37.680;2024-02-26T00:39:58;12.93;;;5.43;;
78987;SDS011;74752;44.786;37.680;2024-02-26T00:41:00;19.80;;;5.25;;
78987;SDS011;74752;44.786;37.680;2024-02-26T00:42:02;17.13;;;4.25;;
78987;SDS011;74752;44.786;37.680;2024-02-26T00:43:06;23.33;;;5.32;;
78987;SDS011;74752;44.786;37.680;2024-02-26T00:44:09;29.60;;;6.07;;
78987;SDS011;74752;44.786;37.680;2024-02-26T00:45:11;10.63;;;5.03;;
78987;SDS011;74752;44.786;37.680;2024-02-26T00:46:13;12.35;;;4.95;;
78987;SDS011;74752;44.786;37.680;2024-02-26T00:47:15;10.82;;;3.70;;
78987;SDS011;74752;44.786;37.680;2024-02-26T00:48:18;21.67;;;4.63;;
78987;SDS011;74752;44.786;37.680;2024-02-26T00:49:20;16.23;;;3.40;;
78987;SDS011;74752;44.786;37.680;2024-02-26T00:50:22;11.77;;;3.17;;
78987;SDS011;74752;44.786;37.680;2024-02-26T00:51:24;11.70;;;3.35;;
78987;SDS011;74752;44.786;37.680;2024-02-26T00:52:26;12.15;;;3.72;;
78987;SDS011;74752;44.786;37.680;2024-02-26T00:53:28;26.20;;;5.35;;
78987;SDS011;74752;44.786;37.680;2024-02-26T00:54:30;19.38;;;4.63;;
78987;SDS011;74752;44.786;37.680;2024-02-26T00:55:32;22.60;;;4.43;;
78987;SDS011;74752;44.786;37.680;2024-02-26T00:56:36;15.95;;;3.38;;
78987;SDS011;74752;44.786;37.680;2024-02-26T00:57:38;26.60;;;5.82;;
78987;SDS011;74752;44.786;37.680;2024-02-26T00:58:41;15.63;;;5.18;;
78987;SDS011;74752;44.786;37.680;2024-02-26T00:59:43;25.02;;;5.30;;
78987;SDS011;74752;44.786;37.680;2024-02-26T01:00:45;11.70;;;3.53;;
78987;SDS011;74752;44.786;37.680;2024-02-26T01:01:48;13.93;;;3.60;;
78987;SDS011;74752;44.786;37.680;2024-02-26T01:02:50;15.40;;;4.82;;
78987;SDS011;74752;44.786;37.680;2024-02-26T01:03:52;9.73;;;3.70;;
78987;SDS011;74752;44.786;37.680;2024-02-26T01:04:55;11.05;;;3.50;;
78987;SDS011;74752;44.786;37.680;2024-02-26T01:05:58;15.57;;;4.53;;
78987;SDS011;74752;44.786;37.680;2024-02-26T01:07:00;18.70;;;4.65;;
78987;SDS011;74752;44.786;37.680;2024-02-26T01:08:02;9.25;;;3.90;;
78987;SDS011;74752;44.786;37.680;2024-02-26T01:09:06;10.18;;;3.75;;
78987;SDS011;74752;44.786;37.680;2024-02-26T01:10:10;10.82;;;4.70;;
78987;SDS011;74752;44.786;37.680;2024-02-26T01:11:12;22.02;;;4.05;;
78987;SDS011;74752;44.786;37.680;2024-02-26T01:12:16;7.50;;;3.50;;
78987;SDS011;74752;44.786;37.680;2024-02-26T01:13:18;8.63;;;3.13;;
78987;SDS011;74752;44.786;37.680;2024-02-26T01:14:21;10.65;;;3.50;;
78987;SDS011;74752;44.786;37.680;2024-02-26T01:15:22;10.60;;;3.15;;
78987;SDS011;74752;44.786;37.680;2024-02-26T01:16:26;12.18;;;3.85;;
78987;SDS011;74752;44.786;37.680;2024-02-26T01:17:30;11.27;;;3.40;;
78987;SDS011;74752;44.786;37.680;2024-02-26T01:18:32;12.48;;;4.32;;
78987;SDS011;74752;44.786;37.680;2024-02-26T01:19:35;11.13;;;3.85;;
78987;SDS011;74752;44.786;37.680;2024-02-26T01:20:37;19.25;;;3.45;;
78987;SDS011;74752;44.786;37.680;2024-02-26T01:21:40;13.60;;;4.35;;
78987;SDS011;74752;44.786;37.680;2024-02-26T01:22:42;21.38;;;3.90;;
78987;SDS011;74752;44.786;37.680;2024-02-26T01:23:47;15.65;;;4.03;;
78987;SDS011;74752;44.786;37.680;2024-02-26T01:24:49;16.90;;;4.07;;
78987;SDS011;74752;44.786;37.680;2024-02-26T01:25:51;20.50;;;4.40;;
78987;SDS011;74752;44.786;37.680;2024-02-26T01:26:53;45.17;;;6.47;;
78987;SDS011;74752;44.786;37.680;2024-02-26T01:27:56;45.78;;;5.05;;
78987;SDS011;74752;44.786;37.680;2024-02-26T01:28:58;35.42;;;4.70;;
78987;SDS011;74752;44.786;37.680;2024-02-26T01:30:01;21.10;;;3.97;;
78987;SDS011;74752;44.786;37.680;2024-02-26T01:31:06;23.27;;;4.70;;
78987;SDS011;74752;44.786;37.680;2024-02-26T01:32:10;19.73;;;4.53;;
78987;SDS011;74752;44.786;37.680;2024-02-26T01:33:12;29.60;;;4.70;;
78987;SDS011;74752;44.786;37.680;2024-02-26T01:34:18;20.55;;;3.67;;
78987;SDS011;74752;44.786;37.680;2024-02-26T01:35:20;16.80;;;4.25;;
78987;SDS011;74752;44.786;37.680;2024-02-26T01:36:22;22.25;;;4.00;;
78987;SDS011;74752;44.786;37.680;2024-02-26T01:37:25;19.63;;;4.50;;
78987;SDS011;74752;44.786;37.680;2024-02-26T01:38:27;39.00;;;4.68;;
78987;SDS011;74752;44.786;37.680;2024-02-26T01:39:30;38.13;;;5.15;;
78987;SDS011;74752;44.786;37.680;2024-02-26T01:40:31;13.23;;;3.38;;
78987;SDS011;74752;44.786;37.680;2024-02-26T01:41:33;13.80;;;3.78;;
78987;SDS011;74752;44.786;37.680;2024-02-26T01:42:38;11.40;;;3.78;;
78987;SDS011;74752;44.786;37.680;2024-02-26T01:43:41;14.35;;;3.38;;
78987;SDS011;74752;44.786;37.680;2024-02-26T01:44:42;20.73;;;4.47;;
78987;SDS011;74752;44.786;37.680;2024-02-26T01:45:46;9.63;;;3.20;;
78987;SDS011;74752;44.786;37.680;2024-02-26T01:46:48;15.02;;;3.70;;
78987;SDS011;74752;44.786;37.680;2024-02-26T01:47:51;12.30;;;4.65;;
78987;SDS011;74752;44.786;37.680;2024-02-26T01:48:53;8.35;;;3.55;;
78987;SDS011;74752;44.786;37.680;2024-02-26T01:49:56;11.65;;;3.17;;
78987;SDS011;74752;44.786;37.680;2024-02-26T01:50:59;13.82;;;4.10;;
78987;SDS011;74752;44.786;37.680;2024-02-26T01:52:01;19.33;;;3.50;;
78987;SDS011;74752;44.786;37.680;2024-02-26T01:53:04;25.95;;;3.65;;
78987;SDS011;74752;44.786;37.680;2024-02-26T01:54:07;9.10;;;2.88;;
78987;SDS011;74752;44.786;37.680;2024-02-26T01:55:10;7.85;;;3.00;;
78987;SDS011;74752;44.786;37.680;2024-02-26T01:56:12;10.50;;;3.13;;
78987;SDS011;74752;44.786;37.680;2024-02-26T01:57:16;15.68;;;3.78;;
78987;SDS011;74752;44.786;37.680;2024-02-26T01:58:20;15.90;;;4.07;;
78987;SDS011;74752;44.786;37.680;2024-02-26T01:59:22;17.30;;;4.05;;
78987;SDS011;74752;44.786;37.680;2024-02-26T02:00:24;13.98;;;4.15;;
78987;SDS011;74752;44.786;37.680;2024-02-26T02:01:32;11.70;;;3.63;;
78987;SDS011;74752;44.786;37.680;2024-02-26T02:02:35;31.63;;;4.53;;
78987;SDS011;74752;44.786;37.680;2024-02-26T02:03:38;14.30;;;3.38;;
78987;SDS011;74752;44.786;37.680;2024-02-26T02:04:40;12.32;;;3.55;;
78987;SDS011;74752;44.786;37.680;2024-02-26T02:05:42;10.77;;;3.28;;
78987;SDS011;74752;44.786;37.680;2024-02-26T02:06:44;13.90;;;3.65;;
78987;SDS011;74752;44.786;37.680;2024-02-26T02:07:48;12.38;;;3.30;;
78987;SDS011;74752;44.786;37.680;2024-02-26T02:08:50;12.07;;;3.58;;
78987;SDS011;74752;44.786;37.680;2024-02-26T02:09:52;19.23;;;4.53;;
78987;SDS011;74752;44.786;37.680;2024-02-26T02:10:54;9.63;;;3.75;;
78987;SDS011;74752;44.786;37.680;2024-02-26T02:11:57;17.80;;;3.50;;
78987;SDS011;74752;44.786;37.680;2024-02-26T02:13:00;12.82;;;3.35;;
78987;SDS011;74752;44.786;37.680;2024-02-26T02:14:01;10.80;;;3.53;;
78987;SDS011;74752;44.786;37.680;2024-02-26T02:15:03;16.63;;;3.90;;
78987;SDS011;74752;44.786;37.680;2024-02-26T02:16:06;18.65;;;4.68;;
78987;SDS011;74752;44.786;37.680;2024-02-26T02:17:09;30.83;;;5.72;;
78987;SDS011;74752;44.786;37.680;2024-02-26T02:18:11;19.38;;;5.25;;
78987;SDS011;74752;44.786;37.680;2024-02-26T02:19:13;25.90;;;5.28;;
78987;SDS011;74752;44.786;37.680;2024-02-26T02:20:16;19.95;;;4.43;;
78987;SDS011;74752;44.786;37.680;2024-02-26T02:21:21;14.57;;;4.30;;
78987;SDS011;74752;44.786;37.680;2024-02-26T02:22:23;18.77;;;4.30;;
78987;SDS011;74752;44.786;37.680;2024-02-26T02:23:26;13.02;;;4.43;;
78987;SDS011;74752;44.786;37.680;2024-02-26T02:24:28;15.18;;;3.55;;
78987;SDS011;74752;44.786;37.680;2024-02-26T02:25:30;13.57;;;4.45;;
78987;SDS011;74752;44.786;37.680;2024-02-26T02:26:32;13.52;;;3.78;;
78987;SDS011;74752;44.786;37.680;2024-02-26T02:27:34;14.10;;;4.82;;
78987;SDS011;74752;44.786;37.680;2024-02-26T02:28:36;13.75;;;5.03;;
78987;SDS011;74752;44.786;37.680;2024-02-26T02:29:38;16.52;;;7.40;;
78987;SDS011;74752;44.786;37.680;2024-02-26T02:30:41;15.18;;;5.65;;
78987;SDS011;74752;44.786;37.680;2024-02-26T02:31:53;19.83;;;5.45;;
78987;SDS011;74752;44.786;37.680;2024-02-26T02:32:56;23.42;;;5.63;;
78987;SDS011;74752;44.786;37.680;2024-02-26T02:33:59;13.45;;;5.07;;
78987;SDS011;74752;44.786;37.680;2024-02-26T02:35:01;22.40;;;5.18;;
78987;SDS011;74752;44.786;37.680;2024-02-26T02:36:07;19.02;;;4.93;;
78987;SDS011;74752;44.786;37.680;2024-02-26T02:37:11;24.05;;;4.30;;
78987;SDS011;74752;44.786;37.680;2024-02-26T02:38:12;28.00;;;5.00;;
78987;SDS011;74752;44.786;37.680;2024-02-26T02:39:17;13.82;;;3.97;;
78987;SDS011;74752;44.786;37.680;2024-02-26T02:40:19;22.98;;;4.75;;
78987;SDS011;74752;44.786;37.680;2024-02-26T02:41:20;19.38;;;5.05;;
78987;SDS011;74752;44.786;37.680;2024-02-26T02:42:22;23.80;;;4.10;;
78987;SDS011;74752;44.786;37.680;2024-02-26T02:43:28;23.83;;;5.45;;
78987;SDS011;74752;44.786;37.680;2024-02-26T02:44:30;20.23;;;4.75;;
78987;SDS011;74752;44.786;37.680;2024-02-26T02:45:32;15.27;;;3.88;;
78987;SDS011;74752;44.786;37.680;2024-02-26T02:46:35;13.18;;;3.97;;
78987;SDS011;74752;44.786;37.680;2024-02-26T02:47:38;7.82;;;3.72;;
78987;SDS011;74752;44.786;37.680;2024-02-26T02:48:41;17.75;;;4.50;;
78987;SDS011;74752;44.786;37.680;2024-02-26T02:49:44;12.38;;;3.63;;
78987;SDS011;74752;44.786;37.680;2024-02-26T02:50:46;15.20;;;4.05;;
78987;SDS011;74752;44.786;37.680;2024-02-26T02:51:48;19.27;;;4.78;;
78987;SDS011;74752;44.786;37.680;2024-02-26T02:52:50;21.88;;;5.28;;
78987;SDS011;74752;44.786;37.680;2024-02-26T02:53:51;37.15;;;7.28;;
78987;SDS011;74752;44.786;37.680;2024-02-26T02:54:53;44.85;;;8.65;;
78987;SDS011;74752;44.786;37.680;2024-02-26T02:55:55;45.15;;;9.65;;
78987;SDS011;74752;44.786;37.680;2024-02-26T02:56:58;31.92;;;6.93;;
78987;SDS011;74752;44.786;37.680;2024-02-26T02:58:00;34.00;;;9.43;;
78987;SDS011;74752;44.786;37.680;2024-02-26T02:59:01;34.55;;;8.80;;
78987;SDS011;74752;44.786;37.680;2024-02-26T03:00:07;34.83;;;8.68;;
78987;SDS011;74752;44.786;37.680;2024-02-26T03:01:11;26.95;;;8.25;;
78987;SDS011;74752;44.786;37.680;2024-02-26T03:02:17;32.25;;;7.15;;
78987;SDS011;74752;44.786;37.680;2024-02-26T03:03:19;32.10;;;8.10;;
78987;SDS011;74752;44.786;37.680;2024-02-26T03:04:21;40.75;;;9.63;;
78987;SDS011;74752;44.786;37.680;2024-02-26T03:05:23;36.65;;;8.32;;
78987;SDS011;74752;44.786;37.680;2024-02-26T03:06:25;40.80;;;6.90;;
78987;SDS011;74752;44.786;37.680;2024-02-26T03:07:30;29.88;;;7.18;;
78987;SDS011;74752;44.786;37.680;2024-02-26T03:08:31;34.70;;;6.15;;
78987;SDS011;74752;44.786;37.680;2024-02-26T03:09:33;39.22;;;6.68;;
78987;SDS011;74752;44.786;37.680;2024-02-26T03:10:35;17.58;;;4.57;;
78987;SDS011;74752;44.786;37.680;2024-02-26T03:11:38;16.80;;;5.15;;
78987;SDS011;74752;44.786;37.680;2024-02-26T03:12:40;85.57;;;9.43;;
78987;SDS011;74752;44.786;37.680;2024-02-26T03:13:42;29.38;;;5.88;;
78987;SDS011;74752;44.786;37.680;2024-02-26T03:14:43;14.55;;;3.95;;
78987;SDS011;74752;44.786;37.680;2024-02-26T03:15:46;23.30;;;4.22;;
78987;SDS011;74752;44.786;37.680;2024-02-26T03:16:48;18.15;;;4.05;;
78987;SDS011;74752;44.786;37.680;2024-02-26T03:17:50;31.75;;;4.75;;
78987;SDS011;74752;44.786;37.680;2024-02-26T03:18:52;34.58;;;4.93;;
78987;SDS011;74752;44.786;37.680;2024-02-26T03:19:53;13.98;;;4.88;;
78987;SDS011;74752;44.786;37.680;2024-02-26T03:20:56;19.80;;;4.70;;
78987;SDS011;74752;44.786;37.680;2024-02-26T03:21:58;16.85;;;4.30;;
78987;SDS011;74752;44.786;37.680;2024-02-26T03:23:00;10.52;;;3.65;;
78987;SDS011;74752;44.786;37.680;2024-02-26T03:24:03;9.50;;;4.45;;
78987;SDS011;74752;44.786;37.680;2024-02-26T03:25:04;18.75;;;3.97;;
78987;SDS011;74752;44.786;37.680;2024-02-26T03:26:08;10.30;;;3.60;;
78987;SDS011;74752;44.786;37.680;2024-02-26T03:27:18;10.75;;;3.65;;
78987;SDS011;74752;44.786;37.680;2024-02-26T03:28:20;6.38;;;3.17;;
78987;SDS011;74752;44.786;37.680;2024-02-26T03:29:22;21.80;;;3.88;;
78987;SDS011;74752;44.786;37.680;2024-02-26T03:30:23;9.32;;;3.72;;
78987;SDS011;74752;44.786;37.680;2024-02-26T03:31:26;13.38;;;4.40;;
78987;SDS011;74752;44.786;37.680;2024-02-26T03:32:28;18.45;;;4.45;;
78987;SDS011;74752;44.786;37.680;2024-02-26T03:33:30;13.27;;;4.80;;
78987;SDS011;74752;44.786;37.680;2024-02-26T03:34:32;12.68;;;4.38;;
78987;SDS011;74752;44.786;37.680;2024-02-26T03:35:41;9.65;;;3.70;;
78987;SDS011;74752;44.786;37.680;2024-02-26T03:36:42;10.10;;;4.00;;
78987;SDS011;74752;44.786;37.680;2024-02-26T03:37:46;12.85;;;4.13;;
78987;SDS011;74752;44.786;37.680;2024-02-26T03:38:49;9.30;;;4.07;;
78987;SDS011;74752;44.786;37.680;2024-02-26T03:39:51;8.75;;;3.63;;
78987;SDS011;74752;44.786;37.680;2024-02-26T03:40:52;8.02;;;3.20;;
78987;SDS011;74752;44.786;37.680;2024-02-26T03:41:57;8.38;;;3.55;;
78987;SDS011;74752;44.786;37.680;2024-02-26T03:42:59;8.43;;;3.22;;
78987;SDS011;74752;44.786;37.680;2024-02-26T03:44:01;12.10;;;3.63;;
78987;SDS011;74752;44.786;37.680;2024-02-26T03:45:03;6.40;;;3.03;;
78987;SDS011;74752;44.786;37.680;2024-02-26T03:46:09;9.50;;;3.53;;
78987;SDS011;74752;44.786;37.680;2024-02-26T03:47:17;11.20;;;3.70;;
78987;SDS011;74752;44.786;37.680;2024-02-26T03:48:19;14.88;;;3.78;;
78987;SDS011;74752;44.786;37.680;2024-02-26T03:49:21;15.80;;;3.70;;
78987;SDS011;74752;44.786;37.680;2024-02-26T03:50:23;12.93;;;4.10;;
78987;SDS011;74752;44.786;37.680;2024-02-26T03:51:27;8.18;;;3.92;;
78987;SDS011;74752;44.786;37.680;2024-02-26T03:52:32;16.45;;;4.32;;
78987;SDS011;74752;44.786;37.680;2024-02-26T03:53:36;9.18;;;3.72;;
78987;SDS011;74752;44.786;37.680;2024-02-26T03:54:38;11.82;;;4.05;;
78987;SDS011;74752;44.786;37.680;2024-02-26T03:55:40;11.85;;;4.10;;
78987;SDS011;74752;44.786;37.680;2024-02-26T03:56:43;9.73;;;4.55;;
78987;SDS011;74752;44.786;37.680;2024-02-26T03:57:46;10.55;;;4.07;;
78987;SDS011;74752;44.786;37.680;2024-02-26T03:58:48;10.73;;;4.72;;
78987;SDS011;74752;44.786;37.680;2024-02-26T03:59:51;11.40;;;5.13;;
78987;SDS011;74752;44.786;37.680;2024-02-26T04:00:52;13.23;;;5.00;;
78987;SDS011;74752;44.786;37.680;2024-02-26T04:01:57;17.83;;;5.95;;
78987;SDS011;74752;44.786;37.680;2024-02-26T04:02:59;16.23;;;4.75;;
78987;SDS011;74752;44.786;37.680;2024-02-26T04:04:03;15.20;;;5.47;;
78987;SDS011;74752;44.786;37.680;2024-02-26T04:05:08;22.77;;;5.00;;
78987;SDS011;74752;44.786;37.680;2024-02-26T04:06:12;18.50;;;5.15;;
78987;SDS011;74752;44.786;37.680;2024-02-26T04:07:19;15.38;;;4.95;;
78987;SDS011;74752;44.786;37.680;2024-02-26T04:08:20;18.17;;;4.63;;
78987;SDS011;74752;44.786;37.680;2024-02-26T04:09:22;35.72;;;5.78;;
78987;SDS011;74752;44.786;37.680;2024-02-26T04:10:27;31.27;;;7.03;;
78987;SDS011;74752;44.786;37.680;2024-02-26T04:11:29;14.50;;;4.45;;
78987;SDS011;74752;44.786;37.680;2024-02-26T04:12:31;14.07;;;5.25;;
78987;SDS011;74752;44.786;37.680;2024-02-26T04:13:33;10.48;;;4.38;;
78987;SDS011;74752;44.786;37.680;2024-02-26T04:14:36;11.38;;;5.15;;
78987;SDS011;74752;44.786;37.680;2024-02-26T04:15:38;15.23;;;4.35;;
78987;SDS011;74752;44.786;37.680;2024-02-26T04:16:40;11.73;;;4.00;;
78987;SDS011;74752;44.786;37.680;2024-02-26T04:17:41;9.50;;;4.95;;
78987;SDS011;74752;44.786;37.680;2024-02-26T04:18:43;9.50;;;4.25;;
78987;SDS011;74752;44.786;37.680;2024-02-26T04:19:45;53.70;;;6.32;;
78987;SDS011;74752;44.786;37.680;2024-02-26T04:20:48;76.10;;;8.32;;
78987;SDS011;74752;44.786;37.680;2024-02-26T04:21:52;12.18;;;5.18;;
78987;SDS011;74752;44.786;37.680;2024-02-26T04:22:54;22.38;;;4.43;;
78987;SDS011;74752;44.786;37.680;2024-02-26T04:23:56;30.92;;;5.72;;
78987;SDS011;74752;44.786;37.680;2024-02-26T04:25:03;15.30;;;4.55;;
78987;SDS011;74752;44.786;37.680;2024-02-26T04:26:05;12.52;;;4.90;;
78987;SDS011;74752;44.786;37.680;2024-02-26T04:27:08;44.60;;;6.03;;
78987;SDS011;74752;44.786;37.680;2024-02-26T04:28:10;9.00;;;4.03;;
78987;SDS011;74752;44.786;37.680;2024-02-26T04:29:13;13.43;;;4.47;;
78987;SDS011;74752;44.786;37.680;2024-02-26T04:30:15;10.60;;;3.83;;
78987;SDS011;74752;44.786;37.680;2024-02-26T04:31:19;21.33;;;5.43;;
78987;SDS011;74752;44.786;37.680;2024-02-26T04:32:20;12.80;;;4.68;;
78987;SDS011;74752;44.786;37.680;2024-02-26T04:33:22;16.55;;;4.05;;
78987;SDS011;74752;44.786;37.680;2024-02-26T04:34:27;13.30;;;4.78;;
78987;SDS011;74752;44.786;37.680;2024-02-26T04:35:29;15.35;;;5.15;;
78987;SDS011;74752;44.786;37.680;2024-02-26T04:36:31;16.02;;;4.05;;
78987;SDS011;74752;44.786;37.680;2024-02-26T04:37:32;10.60;;;4.68;;
78987;SDS011;74752;44.786;37.680;2024-02-26T04:38:39;14.90;;;4.50;;
78987;SDS011;74752;44.786;37.680;2024-02-26T04:39:42;10.13;;;4.07;;
78987;SDS011;74752;44.786;37.680;2024-02-26T04:40:43;12.70;;;4.85;;
78987;SDS011;74752;44.786;37.680;2024-02-26T04:41:46;8.85;;;3.78;;
78987;SDS011;74752;44.786;37.680;2024-02-26T04:42:48;12.95;;;4.50;;
78987;SDS011;74752;44.786;37.680;2024-02-26T04:44:11;21.45;;;5.55;;
78987;SDS011;74752;44.786;37.680;2024-02-26T04:45:13;21.27;;;4.82;;
78987;SDS011;74752;44.786;37.680;2024-02-26T04:46:16;21.45;;;4.38;;
78987;SDS011;74752;44.786;37.680;2024-02-26T04:47:18;14.52;;;3.60;;
78987;SDS011;74752;44.786;37.680;2024-02-26T04:48:20;9.05;;;3.80;;
78987;SDS011;74752;44.786;37.680;2024-02-26T04:49:22;13.68;;;3.63;;
78987;SDS011;74752;44.786;37.680;2024-02-26T04:50:23;19.55;;;4.18;;
78987;SDS011;74752;44.786;37.680;2024-02-26T04:51:26;9.57;;;4.38;;
78987;SDS011;74752;44.786;37.680;2024-02-26T04:52:28;11.18;;;3.90;;
78987;SDS011;74752;44.786;37.680;2024-02-26T04:53:30;11.93;;;4.40;;
78987;SDS011;74752;44.786;37.680;2024-02-26T04:54:32;14.05;;;3.80;;
78987;SDS011;74752;44.786;37.680;2024-02-26T04:55:33;9.88;;;4.25;;
78987;SDS011;74752;44.786;37.680;2024-02-26T04:56:36;16.67;;;5.07;;
78987;SDS011;74752;44.786;37.680;2024-02-26T04:57:38;24.77;;;4.82;;
78987;SDS011;74752;44.786;37.680;2024-02-26T04:58:40;10.55;;;4.50;;
78987;SDS011;74752;44.786;37.680;2024-02-26T04:59:42;8.73;;;4.13;;
78987;SDS011;74752;44.786;37.680;2024-02-26T05:00:43;12.60;;;4.10;;
78987;SDS011;74752;44.786;37.680;2024-02-26T05:01:45;9.20;;;3.95;;
78987;SDS011;74752;44.786;37.680;2024-02-26T05:02:48;11.80;;;4.20;;
78987;SDS011;74752;44.786;37.680;2024-02-26T05:03:50;42.13;;;6.50;;
78987;SDS011;74752;44.786;37.680;2024-02-26T05:04:52;19.77;;;4.35;;
78987;SDS011;74752;44.786;37.680;2024-02-26T05:05:56;9.27;;;4.60;;
78987;SDS011;74752;44.786;37.680;2024-02-26T05:06:59;10.93;;;4.35;;
78987;SDS011;74752;44.786;37.680;2024-02-26T05:08:01;54.25;;;5.93;;
78987;SDS011;74752;44.786;37.680;2024-02-26T05:09:03;24.15;;;4.63;;
78987;SDS011;74752;44.786;37.680;2024-02-26T05:10:06;19.80;;;4.68;;
78987;SDS011;74752;44.786;37.680;2024-02-26T05:11:11;28.02;;;6.28;;
78987;SDS011;74752;44.786;37.680;2024-02-26T05:12:13;20.52;;;6.55;;
78987;SDS011;74752;44.786;37.680;2024-02-26T05:13:16;11.20;;;4.00;;
78987;SDS011;74752;44.786;37.680;2024-02-26T05:14:19;11.25;;;3.97;;
78987;SDS011;74752;44.786;37.680;2024-02-26T05:15:25;7.72;;;3.92;;
78987;SDS011;74752;44.786;37.680;2024-02-26T05:16:27;72.00;;;8.38;;
78987;SDS011;74752;44.786;37.680;2024-02-26T05:17:31;30.17;;;7.00;;
78987;SDS011;74752;44.786;37.680;2024-02-26T05:18:38;26.83;;;4.85;;
78987;SDS011;74752;44.786;37.680;2024-02-26T05:19:40;15.98;;;7.47;;
78987;SDS011;74752;44.786;37.680;2024-02-26T05:20:42;9.55;;;4.43;;
78987;SDS011;74752;44.786;37.680;2024-02-26T05:21:43;16.30;;;5.22;;
78987;SDS011;74752;44.786;37.680;2024-02-26T05:22:45;13.13;;;4.30;;
78987;SDS011;74752;44.786;37.680;2024-02-26T05:23:49;20.55;;;5.13;;
78987;SDS011;74752;44.786;37.680;2024-02-26T05:24:51;11.60;;;3.67;;
78987;SDS011;74752;44.786;37.680;2024-02-26T05:25:53;11.93;;;5.03;;
78987;SDS011;74752;44.786;37.680;2024-02-26T05:26:55;19.65;;;5.28;;
78987;SDS011;74752;44.786;37.680;2024-02-26T05:27:58;11.57;;;5.00;;
78987;SDS011;74752;44.786;37.680;2024-02-26T05:29:00;18.83;;;5.32;;
78987;SDS011;74752;44.786;37.680;2024-02-26T05:30:01;19.17;;;7.03;;
78987;SDS011;74752;44.786;37.680;2024-02-26T05:31:05;25.20;;;6.03;;
78987;SDS011;74752;44.786;37.680;2024-02-26T05:32:08;33.13;;;7.43;;
78987;SDS011;74752;44.786;37.680;2024-02-26T05:33:10;15.73;;;5.55;;
78987;SDS011;74752;44.786;37.680;2024-02-26T05:34:12;16.73;;;4.40;;
78987;SDS011;74752;44.786;37.680;2024-02-26T05:35:13;13.00;;;4.22;;
78987;SDS011;74752;44.786;37.680;2024-02-26T05:36:23;13.30;;;4.68;;
78987;SDS011;74752;44.786;37.680;2024-02-26T05:37:27;28.52;;;5.68;;
78987;SDS011;74752;44.786;37.680;2024-02-26T05:38:29;23.10;;;4.97;;
78987;SDS011;74752;44.786;37.680;2024-02-26T05:39:32;17.02;;;4.78;;
78987;SDS011;74752;44.786;37.680;2024-02-26T05:40:33;14.50;;;3.70;;
78987;SDS011;74752;44.786;37.680;2024-02-26T05:41:36;14.90;;;4.50;;
78987;SDS011;74752;44.786;37.680;2024-02-26T05:42:38;7.78;;;4.38;;
78987;SDS011;74752;44.786;37.680;2024-02-26T05:43:40;8.43;;;4.30;;
78987;SDS011;74752;44.786;37.680;2024-02-26T05:44:41;22.10;;;5.55;;
78987;SDS011;74752;44.786;37.680;2024-02-26T05:45:43;6.53;;;3.90;;
78987;SDS011;74752;44.786;37.680;2024-02-26T05:46:46;8.45;;;3.83;;
78987;SDS011;74752;44.786;37.680;2024-02-26T05:47:48;17.35;;;4.95;;
78987;SDS011;74752;44.786;37.680;2024-02-26T05:48:51;11.85;;;4.47;;
78987;SDS011;74752;44.786;37.680;2024-02-26T05:49:53;13.80;;;4.82;;
78987;SDS011;74752;44.786;37.680;2024-02-26T05:50:56;10.27;;;4.97;;
78987;SDS011;74752;44.786;37.680;2024-02-26T05:51:59;26.50;;;5.40;;
78987;SDS011;74752;44.786;37.680;2024-02-26T05:53:00;10.27;;;4.07;;
78987;SDS011;74752;44.786;37.680;2024-02-26T05:54:02;13.50;;;4.68;;
78987;SDS011;74752;44.786;37.680;2024-02-26T05:55:06;12.68;;;5.03;;
78987;SDS011;74752;44.786;37.680;2024-02-26T05:56:09;11.35;;;5.10;;
78987;SDS011;74752;44.786;37.680;2024-02-26T05:57:11;8.18;;;4.63;;
78987;SDS011;74752;44.786;37.680;2024-02-26T05:58:13;14.73;;;6.20;;
78987;SDS011;74752;44.786;37.680;2024-02-26T05:59:15;12.32;;;4.00;;
78987;SDS011;74752;44.786;37.680;2024-02-26T06:00:17;21.27;;;4.78;;
78987;SDS011;74752;44.786;37.680;2024-02-26T06:01:20;9.82;;;4.13;;
78987;SDS011;74752;44.786;37.680;2024-02-26T06:02:22;17.58;;;4.20;;
78987;SDS011;74752;44.786;37.680;2024-02-26T06:03:23;14.50;;;4.40;;
78987;SDS011;74752;44.786;37.680;2024-02-26T06:04:26;12.45;;;4.88;;
78987;SDS011;74752;44.786;37.680;2024-02-26T06:05:28;13.25;;;4.38;;
78987;SDS011;74752;44.786;37.680;2024-02-26T06:06:30;8.23;;;4.45;;
78987;SDS011;74752;44.786;37.680;2024-02-26T06:07:32;10.40;;;4.38;;
78987;SDS011;74752;44.786;37.680;2024-02-26T06:08:35;29.13;;;4.82;;